Time;durP1;ratioP1;P1;durP2;ratioP2;P2;SDS_P1;SDS_P2;PMS_P1;PMS_P2;Temp;Humidity;BMP_temperature;BMP_pressure;BME280_temperature;BME280_humidity;BME280_pressure;Samples;Min_cycle;Max_cycle;Signal;HPM_P1;HPM_P2
2022/08/30 00:02:22;;;;;;;4.00;2.27;;;21.20;69.30;;;22.30;45.75;100831.53;5011288;28;21331;-70
2022/08/30 00:04:52;;;;;;;2.90;2.00;;;21.10;69.80;;;22.22;45.94;100840.44;5013375;28;20731;-71
2022/08/30 00:07:20;;;;;;;2.97;2.00;;;21.00;70.40;;;22.21;46.07;100835.31;5021324;28;20681;-70
2022/08/30 00:09:47;;;;;;;7.83;2.20;;;21.00;70.50;;;22.19;45.91;100834.66;5031128;28;20605;-71
2022/08/30 00:12:14;;;;;;;3.33;2.20;;;20.90;70.50;;;22.27;45.65;100837.22;5009367;28;20995;-70
2022/08/30 00:14:41;;;;;;;2.20;2.10;;;20.90;70.40;;;22.18;45.63;100835.66;5011008;28;21219;-72
2022/08/30 00:17:08;;;;;;;3.10;2.20;;;20.90;70.30;;;22.12;45.70;100828.41;5009373;28;20676;-70
2022/08/30 00:19:35;;;;;;;2.00;1.90;;;20.90;70.20;;;22.09;45.55;100826.09;5012190;28;20641;-68
2022/08/30 00:22:02;;;;;;;3.33;1.80;;;20.80;70.50;;;22.11;45.69;100827.56;5024887;28;21385;-71
2022/08/30 00:24:29;;;;;;;3.07;2.47;;;20.80;70.60;;;22.10;45.97;100822.44;5011121;28;21218;-70
2022/08/30 00:26:56;;;;;;;2.30;2.10;;;20.80;70.70;;;21.82;46.72;100822.19;4992071;28;20745;-70
2022/08/30 00:29:23;;;;;;;7.00;2.20;;;20.70;70.60;;;21.86;46.40;100826.13;5008830;28;20636;-70
2022/08/30 00:31:50;;;;;;;2.30;2.10;;;20.70;70.90;;;21.94;45.96;100819.91;5016156;28;21216;-71
2022/08/30 00:34:17;;;;;;;2.40;2.20;;;20.70;70.90;;;21.89;46.03;100827.59;4992287;28;20619;-70
2022/08/30 00:36:44;;;;;;;2.80;1.60;;;20.70;71.00;;;21.86;46.08;100827.94;4990735;28;20674;-70
2022/08/30 00:39:12;;;;;;;4.07;2.17;;;20.60;70.90;;;21.79;46.30;100829.63;5001056;28;21374;-70
2022/08/30 00:41:39;;;;;;;3.03;1.90;;;20.60;71.10;;;21.79;46.29;100829.63;5011246;28;20975;-70
2022/08/30 00:44:06;;;;;;;2.07;1.97;;;20.60;71.20;;;21.79;45.82;100826.97;4991095;28;21204;-70
2022/08/30 00:46:33;;;;;;;4.10;2.10;;;20.60;71.30;;;21.72;46.26;100831.34;4991651;28;21229;-70
2022/08/30 00:49:05;;;;;;;2.17;1.97;;;20.50;71.50;;;21.77;46.15;100836.94;4992583;28;20635;-71
2022/08/30 00:51:33;;;;;;;2.43;2.23;;;20.50;71.50;;;21.61;46.54;100822.78;4998142;28;20652;-70
2022/08/30 00:54:00;;;;;;;1.90;1.80;;;20.50;71.30;;;21.62;46.61;100828.94;5011413;28;20613;-69
2022/08/30 00:56:29;;;;;;;3.00;2.33;;;20.50;71.60;;;21.57;46.46;100824.13;5005021;28;21116;-71
2022/08/30 00:58:59;;;;;;;2.57;2.33;;;20.50;71.70;;;21.66;46.68;100826.75;4991078;28;20618;-70
2022/08/30 01:01:27;;;;;;;7.93;2.60;;;20.50;71.70;;;21.63;46.12;100834.09;4974045;28;20634;-70
2022/08/30 01:03:58;;;;;;;2.50;2.30;;;20.50;71.50;;;21.56;46.56;100838.44;4991474;28;20624;-70
2022/08/30 01:06:26;;;;;;;2.17;2.03;;;20.40;71.50;;;21.57;46.22;100837.41;4994860;28;20665;-70
2022/08/30 01:09:00;;;;;;;3.00;2.03;;;20.40;71.40;;;21.49;46.52;100832.16;5029312;28;20623;-70
2022/08/30 01:11:28;;;;;;;3.60;2.50;;;20.40;72.10;;;21.45;46.83;100840.66;5023263;28;20656;-71
2022/08/30 01:13:56;;;;;;;5.60;2.00;;;20.40;71.80;;;21.50;46.74;100833.00;5008529;28;20637;-70
2022/08/30 01:16:24;;;;;;;2.97;2.20;;;20.40;72.10;;;21.45;46.76;100835.34;5004621;28;20668;-70
2022/08/30 01:18:57;;;;;;;2.60;2.40;;;20.30;72.10;;;21.40;46.87;100835.06;4990667;28;20675;-70
2022/08/30 01:21:39;;;;;;;1.83;1.73;;;20.30;72.40;;;21.46;46.99;100832.53;4995529;28;20626;-70
2022/08/30 01:24:08;;;;;;;3.53;2.30;;;20.30;72.60;;;21.41;47.01;100829.56;5012952;28;20616;-70
2022/08/30 01:26:35;;;;;;;2.73;2.50;;;20.30;72.70;;;21.44;47.18;100823.91;5023620;28;20657;-70
2022/08/30 01:29:08;;;;;;;2.33;1.87;;;20.30;72.70;;;21.48;46.93;100822.56;5023167;28;20987;-70
2022/08/30 01:31:35;;;;;;;3.93;2.53;;;20.30;72.90;;;21.53;46.89;100825.50;5029278;28;20600;-71
2022/08/30 01:34:06;;;;;;;2.77;2.33;;;20.30;72.90;;;21.57;46.78;100834.75;5031362;28;20624;-70
2022/08/30 01:36:36;;;;;;;4.40;2.70;;;20.40;72.90;;;21.50;47.22;100838.31;4999822;28;20668;-70
2022/08/30 01:39:14;;;;;;;2.87;2.57;;;20.40;73.00;;;21.42;47.58;100830.41;4990319;28;20622;-70
2022/08/30 01:41:42;;;;;;;2.63;2.43;;;20.30;73.10;;;21.30;47.85;100832.63;4990660;28;20657;-71
2022/08/30 01:44:11;;;;;;;3.40;2.30;;;20.20;73.40;;;21.31;47.54;100830.78;4990641;28;20715;-70
2022/08/30 01:46:45;;;;;;;6.50;2.20;;;20.20;73.60;;;21.41;47.77;100829.56;4990338;28;20669;-70
2022/08/30 01:49:17;;;;;;;4.23;2.50;;;20.20;73.80;;;21.35;47.45;100835.59;4989713;28;20725;-70
2022/08/30 01:51:54;;;;;;;6.43;2.30;;;20.20;74.00;;;21.32;48.04;100827.94;4989870;28;20638;-70
2022/08/30 01:54:29;;;;;;;2.30;2.13;;;20.20;74.00;;;21.34;47.75;100828.59;4991411;28;20630;-70
2022/08/30 01:57:05;;;;;;;2.57;2.37;;;20.20;74.30;;;21.22;48.51;100831.81;4994770;28;20685;-71
2022/08/30 01:59:33;;;;;;;2.93;2.30;;;20.20;74.60;;;21.30;47.93;100829.13;5021354;28;20652;-71
2022/08/30 02:01:59;;;;;;;2.47;2.20;;;20.20;74.70;;;21.19;48.36;100829.53;5009747;28;20634;-72
2022/08/30 02:04:26;;;;;;;4.13;2.70;;;20.10;74.70;;;21.01;48.70;100828.91;5003778;28;21481;-70
2022/08/30 02:06:53;;;;;;;2.57;2.10;;;20.10;75.00;;;20.85;49.00;100827.97;4989956;28;20630;-70
2022/08/30 02:09:20;;;;;;;3.20;2.40;;;19.90;75.00;;;20.95;48.91;100840.22;4989838;28;20602;-71
2022/08/30 02:11:47;;;;;;;3.60;2.20;;;19.90;75.40;;;20.92;48.87;100844.03;4988578;28;20623;-69
2022/08/30 02:14:14;;;;;;;5.03;2.20;;;19.80;75.40;;;20.91;48.80;100839.75;5013727;28;20633;-70
2022/08/30 02:16:41;;;;;;;3.13;2.10;;;19.80;75.60;;;20.83;48.86;100829.97;5026764;28;20651;-71
2022/08/30 02:19:08;;;;;;;2.40;2.20;;;19.70;75.90;;;20.84;48.63;100829.00;4990604;28;20750;-70
2022/08/30 02:21:38;;;;;;;3.33;1.90;;;19.70;76.00;;;20.85;48.58;100837.75;4995273;28;20623;-70
2022/08/30 02:24:05;;;;;;;2.83;2.43;;;19.70;75.80;;;20.93;48.81;100823.66;5028036;28;20637;-70
2022/08/30 02:26:35;;;;;;;7.13;2.40;;;19.80;75.90;;;20.95;48.67;100829.59;5028289;28;20633;-71
2022/08/30 02:29:04;;;;;;;2.40;2.03;;;19.90;75.80;;;21.03;48.40;100825.13;5008608;28;20633;-71
2022/08/30 02:31:31;;;;;;;4.63;2.20;;;19.80;75.40;;;20.94;48.26;100828.78;5015471;28;21044;-69
2022/08/30 02:33:58;;;;;;;2.70;2.20;;;19.80;75.50;;;20.87;48.51;100830.44;5023392;28;21045;-71
2022/08/30 02:36:25;;;;;;;2.60;2.40;;;19.80;75.50;;;20.86;48.68;100831.47;5014245;28;21225;-70
2022/08/30 02:38:52;;;;;;;1.77;1.60;;;19.80;75.70;;;20.76;48.74;100830.84;5013501;28;20664;-69
2022/08/30 02:41:22;;;;;;;2.27;2.07;;;19.70;75.90;;;20.75;48.90;100818.56;5013843;28;20618;-70
2022/08/30 02:43:50;;;;;;;2.80;2.00;;;19.70;76.20;;;20.69;48.98;100813.97;5012422;28;20638;-71
2022/08/30 02:46:17;;;;;;;2.30;2.10;;;19.60;76.30;;;20.68;48.84;100817.59;5012661;28;20641;-71
2022/08/30 02:48:44;;;;;;;2.70;2.07;;;19.60;76.20;;;20.68;48.73;100823.72;5006149;28;20636;-70
2022/08/30 02:51:12;;;;;;;5.83;2.53;;;19.60;76.60;;;20.65;49.01;100820.59;4992750;28;21190;-70
2022/08/30 02:53:42;;;;;;;2.30;2.10;;;19.60;76.60;;;20.66;48.90;100819.59;4993309;28;20705;-71
2022/08/30 02:56:11;;;;;;;3.23;2.40;;;19.50;76.60;;;20.61;48.86;100814.81;4994915;28;20660;-69
2022/08/30 02:58:41;;;;;;;6.37;2.07;;;19.50;76.80;;;20.60;49.42;100810.50;4992065;28;20662;-69
2022/08/30 03:01:11;;;;;;;4.07;2.40;;;19.50;77.00;;;20.57;49.18;100808.19;4991716;28;21010;-68
2022/08/30 03:03:40;;;;;;;3.40;1.77;;;19.50;77.00;;;20.64;49.01;100814.47;4991683;28;20626;-68
2022/08/30 03:06:09;;;;;;;2.70;2.43;;;19.50;76.90;;;20.49;48.87;100804.72;4992340;28;20651;-68
2022/08/30 03:08:36;;;;;;;2.90;2.10;;;19.40;77.00;;;20.45;49.45;100801.59;4992401;28;20617;-68
2022/08/30 03:11:03;;;;;;;2.80;2.23;;;19.40;77.30;;;20.52;49.23;100805.25;4993405;28;20617;-70
2022/08/30 03:13:30;;;;;;;3.10;2.27;;;19.40;77.30;;;20.54;49.19;100810.34;4993451;28;20709;-67
2022/08/30 03:15:57;;;;;;;4.00;2.20;;;19.40;77.40;;;20.46;49.16;100811.22;5004748;28;20657;-68
2022/08/30 03:18:25;;;;;;;6.97;2.50;;;19.40;77.40;;;20.46;49.33;100805.91;5013375;28;20677;-68
2022/08/30 03:20:52;;;;;;;3.80;2.20;;;19.40;77.40;;;20.26;49.66;100806.44;5020305;28;20662;-69
2022/08/30 03:23:21;;;;;;;3.80;2.50;;;19.30;77.60;;;20.23;49.56;100804.16;5017281;28;20618;-71
2022/08/30 03:25:48;;;;;;;2.83;1.70;;;19.20;77.90;;;20.17;49.89;100804.78;5027026;28;20644;-70
2022/08/30 03:28:16;;;;;;;2.03;1.83;;;19.20;78.10;;;20.08;50.06;100812.72;4993453;28;20614;-70
2022/08/30 03:30:43;;;;;;;2.07;1.87;;;19.10;78.30;;;20.10;49.72;100802.78;4992272;28;20624;-70
2022/08/30 03:33:10;;;;;;;8.23;2.23;;;19.00;78.50;;;20.10;49.87;100802.78;4993349;28;20626;-69
2022/08/30 03:35:40;;;;;;;2.67;2.40;;;18.90;78.60;;;20.09;49.55;100801.16;4993028;28;20663;-70
2022/08/30 03:38:08;;;;;;;1.80;1.70;;;18.90;78.70;;;20.01;49.92;100801.16;4994117;28;20654;-72
2022/08/30 03:40:34;;;;;;;4.47;1.97;;;18.90;79.10;;;20.07;49.87;100799.66;4992921;28;20661;-69
2022/08/30 03:43:02;;;;;;;2.40;2.20;;;18.80;79.20;;;19.95;49.95;100796.50;4993928;28;20637;-70
2022/08/30 03:45:30;;;;;;;2.83;1.83;;;18.70;79.50;;;19.89;50.24;100801.66;4991439;28;20647;-69
2022/08/30 03:47:57;;;;;;;3.40;2.47;;;18.80;79.60;;;19.92;50.29;100809.25;4993186;28;20649;-70
2022/08/30 03:50:24;;;;;;;3.10;2.50;;;18.80;79.70;;;19.79;50.50;100799.16;4992417;28;20646;-69
2022/08/30 03:52:54;;;;;;;5.23;2.30;;;18.80;79.50;;;19.77;50.40;100809.09;5016017;28;20688;-70
2022/08/30 03:55:22;;;;;;;4.00;1.80;;;18.70;79.70;;;19.76;50.38;100802.13;5022133;28;20652;-70
2022/08/30 03:57:49;;;;;;;3.13;2.20;;;18.70;79.90;;;19.77;50.86;100805.63;5021007;28;20660;-70
2022/08/30 04:00:18;;;;;;;4.70;2.03;;;18.70;80.20;;;19.69;50.63;100810.91;4987251;28;20635;-69
2022/08/30 04:02:45;;;;;;;4.60;2.40;;;18.70;80.00;;;19.61;50.78;100803.81;5007515;28;20962;-70
2022/08/30 04:05:19;;;;;;;3.33;2.20;;;18.70;80.10;;;19.67;50.69;100813.72;4991696;28;21158;-71
2022/08/30 04:07:46;;;;;;;3.93;2.37;;;18.70;80.20;;;19.63;51.02;100811.56;4991510;28;20649;-70
2022/08/30 04:10:13;;;;;;;2.70;2.30;;;18.60;80.50;;;19.64;50.82;100807.91;4991843;28;20623;-70
2022/08/30 04:12:40;;;;;;;5.10;2.27;;;18.60;80.60;;;19.58;51.20;100809.41;5007380;28;20645;-68
2022/08/30 04:15:12;;;;;;;7.30;2.27;;;18.60;80.70;;;19.57;51.10;100813.03;5010575;28;20625;-66
2022/08/30 04:17:39;;;;;;;2.20;2.10;;;18.60;81.00;;;19.51;51.10;100820.81;4990827;28;21218;-68
2022/08/30 04:20:07;;;;;;;2.13;1.93;;;18.60;81.10;;;19.48;51.30;100815.84;5005986;28;20633;-68
2022/08/30 04:22:35;;;;;;;4.27;2.57;;;18.50;81.20;;;19.44;51.27;100817.16;5019927;28;21230;-69
2022/08/30 04:25:04;;;;;;;2.83;2.60;;;18.50;81.30;;;19.45;51.41;100817.00;5031408;28;21194;-67
2022/08/30 04:27:31;;;;;;;2.60;2.40;;;18.50;81.70;;;19.45;51.55;100818.81;5030138;28;20670;-68
2022/08/30 04:29:58;;;;;;;5.30;2.27;;;18.40;81.60;;;19.40;51.48;100818.50;5026441;28;20633;-68
2022/08/30 04:32:26;;;;;;;3.73;2.17;;;18.40;81.60;;;19.43;51.40;100810.22;5019309;28;20614;-68
2022/08/30 04:34:59;;;;;;;4.00;2.30;;;18.50;81.70;;;19.57;51.10;100809.59;5031115;28;21176;-68
2022/08/30 04:37:26;;;;;;;3.50;2.23;;;18.50;81.70;;;19.55;51.10;100808.94;5004487;28;20658;-68
2022/08/30 04:40:00;;;;;;;4.37;2.20;;;18.50;81.40;;;19.70;50.72;100815.22;5005397;28;20729;-68
2022/08/30 04:42:30;;;;;;;3.43;2.73;;;18.60;81.40;;;19.76;50.55;100822.50;4990907;28;20661;-68
2022/08/30 04:45:00;;;;;;;2.93;1.97;;;18.70;81.30;;;19.77;50.38;100824.97;4990960;28;20622;-68
2022/08/30 04:47:27;;;;;;;8.47;2.80;;;18.70;81.10;;;19.71;50.71;100833.59;5006249;28;20648;-69
2022/08/30 04:49:54;;;;;;;5.40;2.57;;;18.70;81.20;;;19.61;50.89;100838.22;5010262;28;20637;-68
2022/08/30 04:52:21;;;;;;;2.40;2.20;;;18.60;81.50;;;19.56;50.80;100840.50;5010000;28;21169;-68
2022/08/30 04:54:57;;;;;;;2.73;2.30;;;18.50;81.90;;;19.52;51.17;100841.84;5017374;28;20628;-67
2022/08/30 04:57:25;;;;;;;1.87;1.77;;;18.40;82.30;;;19.53;51.22;100840.03;5026716;28;20655;-70
2022/08/30 04:59:53;;;;;;;4.07;1.90;;;18.40;82.50;;;19.57;51.06;100844.78;5030254;28;20661;-69
2022/08/30 05:02:20;;;;;;;6.03;2.13;;;18.40;82.80;;;19.71;51.00;100844.19;4994807;28;21236;-69
2022/08/30 05:07:34;;;;;;;1.97;1.83;;;18.60;82.30;;;19.93;49.99;100846.16;5005336;28;21030;-70
2022/08/30 05:10:02;;;;;;;2.57;2.37;;;18.70;82.00;;;20.07;49.82;100842.03;4992693;28;20665;-68
2022/08/30 05:12:36;;;;;;;4.90;2.17;;;18.80;81.70;;;20.32;48.91;100845.50;5006756;28;20669;-67
2022/08/30 05:15:03;;;;;;;3.53;2.07;;;18.90;80.90;;;20.58;48.08;100846.97;5003105;28;20629;-70
2022/08/30 05:17:30;;;;;;;6.43;1.87;;;19.10;80.20;;;20.85;47.46;100848.38;5003821;28;20642;-68
2022/08/30 05:20:00;;;;;;;6.90;2.30;;;19.40;79.60;;;21.12;46.79;100853.28;5015109;28;20669;-68
2022/08/30 05:22:27;;;;;;;6.90;2.43;;;19.60;78.90;;;21.34;46.50;100854.31;5027712;28;20621;-69
2022/08/30 05:24:54;;;;;;;2.87;2.50;;;19.90;78.90;;;21.54;46.21;100853.72;5010228;28;20624;-70
2022/08/30 05:27:20;;;;;;;4.00;2.30;;;20.10;77.40;;;21.72;45.76;100850.78;5013126;28;20641;-69
2022/08/30 05:29:47;;;;;;;6.00;2.00;;;20.30;76.70;;;22.10;45.05;100862.31;5009384;28;21237;-68
2022/08/30 05:32:14;;;;;;;2.70;2.50;;;20.70;76.10;;;22.37;44.29;100869.69;5010271;28;20620;-68
2022/08/30 05:34:41;;;;;;;2.30;1.97;;;20.90;75.00;;;22.88;43.23;100868.84;5007135;28;20626;-67
2022/08/30 05:37:08;;;;;;;3.63;1.90;;;21.30;74.30;;;23.45;42.30;100874.31;5009956;28;20736;-68
2022/08/30 05:39:38;;;;;;;2.93;2.33;;;21.60;73.50;;;23.95;40.79;100868.06;5009648;28;20658;-66
2022/08/30 05:42:17;;;;;;;2.93;2.20;;;21.90;72.50;;;24.49;39.77;100866.47;4999149;28;21189;-64
2022/08/30 05:44:44;;;;;;;7.10;2.40;;;22.30;72.20;;;24.76;39.11;100866.69;5001315;28;20638;-66
2022/08/30 05:47:11;;;;;;;4.03;2.43;;;22.60;71.00;;;25.30;38.46;100864.88;5002247;28;20662;-67
2022/08/30 05:49:38;;;;;;;4.63;2.63;;;23.00;70.10;;;25.82;37.67;100862.41;5018617;28;20618;-66
2022/08/30 05:52:05;;;;;;;4.57;2.60;;;23.50;69.10;;;25.99;37.52;100866.31;5004217;28;20634;-67
2022/08/30 05:54:31;;;;;;;2.30;2.20;;;23.70;68.60;;;26.63;36.28;100873.72;5016420;28;20621;-67
2022/08/30 05:56:58;;;;;;;6.13;2.47;;;24.20;67.00;;;27.10;35.38;100873.41;5022244;28;20670;-67
2022/08/30 05:59:25;;;;;;;5.23;2.73;;;24.70;66.00;;;27.46;34.88;100879.06;5007799;28;20677;-66
2022/08/30 06:01:56;;;;;;;3.70;2.87;;;25.00;65.00;;;27.68;34.15;100872.31;5012108;28;20712;-67
2022/08/30 06:04:24;;;;;;;4.40;2.30;;;25.30;64.20;;;27.90;33.78;100875.47;5013802;28;20754;-67
2022/08/30 06:06:52;;;;;;;6.17;2.70;;;25.50;63.70;;;28.16;33.72;100861.06;5023833;28;20669;-66
2022/08/30 06:09:19;;;;;;;3.43;2.40;;;25.80;63.80;;;28.42;33.52;100863.53;5025702;28;20626;-69
2022/08/30 06:11:46;;;;;;;8.90;2.90;;;26.00;62.80;;;28.73;33.09;100860.75;5000752;28;20649;-69
2022/08/30 06:14:14;;;;;;;6.50;2.97;;;26.20;63.30;;;28.96;32.75;100858.22;4994662;28;20618;-66
2022/08/30 06:16:44;;;;;;;6.03;2.50;;;26.40;61.90;;;29.62;32.10;100860.88;4992607;28;21254;-64
2022/08/30 06:19:13;;;;;;;5.50;2.50;;;26.90;61.30;;;30.16;30.75;100862.56;4994552;28;20654;-68
2022/08/30 06:21:41;;;;;;;2.60;2.40;;;27.30;60.70;;;30.32;31.00;100864.63;4991751;28;20737;-68
2022/08/30 06:24:10;;;;;;;4.63;2.57;;;27.50;60.50;;;30.14;31.03;100867.38;4994879;28;20625;-69
2022/08/30 06:26:42;;;;;;;7.03;2.73;;;27.50;60.10;;;30.29;31.46;100867.72;4994292;28;20643;-69
2022/08/30 06:29:15;;;;;;;6.83;2.70;;;27.60;59.90;;;30.36;31.29;100865.78;4995974;28;20749;-70
2022/08/30 06:31:42;;;;;;;2.93;2.73;;;27.70;59.60;;;31.21;30.02;100876.81;4994494;28;20629;-67
2022/08/30 06:34:09;;;;;;;5.97;3.10;;;28.20;59.30;;;32.62;28.35;100879.31;4994774;28;20634;-69
2022/08/30 06:36:37;;;;;;;6.57;3.00;;;28.90;58.50;;;33.79;27.13;100882.38;5004481;28;20664;-69
2022/08/30 06:39:06;;;;;;;3.13;2.77;;;29.80;57.20;;;34.92;25.40;100881.88;5012221;28;20661;-64
2022/08/30 06:41:35;;;;;;;5.53;2.60;;;30.60;56.10;;;35.72;24.61;100874.00;5002854;28;20653;-67
2022/08/30 06:44:04;;;;;;;4.80;2.57;;;31.10;55.20;;;36.74;23.29;100883.75;4994008;28;20610;-67
2022/08/30 06:46:35;;;;;;;3.80;2.40;;;31.90;54.00;;;37.69;22.92;100879.78;4993368;28;20650;-66
2022/08/30 06:49:04;;;;;;;5.77;3.30;;;32.60;53.10;;;38.00;22.40;100892.09;4995207;28;20677;-67
2022/08/30 06:51:36;;;;;;;3.93;2.43;;;33.00;51.90;;;37.53;21.88;100880.97;4994127;28;20638;-67
2022/08/30 06:54:07;;;;;;;4.87;2.30;;;33.10;51.40;;;37.61;22.19;100888.53;4994543;28;20819;-67
2022/08/30 06:56:35;;;;;;;5.27;3.00;;;33.30;51.20;;;38.10;22.08;100884.94;4994012;28;20658;-67
2022/08/30 06:59:03;;;;;;;5.80;2.70;;;33.60;50.90;;;38.97;20.94;100890.06;5006723;28;20681;-67
2022/08/30 07:01:30;;;;;;;2.87;2.43;;;34.00;50.20;;;38.99;20.82;100887.84;5010111;28;20728;-67
2022/08/30 07:03:59;;;;;;;2.70;2.43;;;34.30;49.50;;;39.55;20.15;100890.66;5012863;28;20716;-67
2022/08/30 07:06:28;;;;;;;3.10;2.50;;;34.70;49.00;;;39.59;20.20;100893.63;5011820;28;20634;-66
2022/08/30 07:08:55;;;;;;;4.80;2.90;;;34.80;48.70;;;39.49;20.24;100895.34;5000796;28;20641;-67
2022/08/30 07:11:41;;;;;;;3.73;2.47;;;35.00;48.30;;;39.38;20.20;100893.06;5011416;28;20627;-70
2022/08/30 07:14:08;;;;;;;3.10;2.30;;;35.20;48.00;;;38.75;20.75;100889.75;5023107;28;20636;-69
2022/08/30 07:16:35;;;;;;;10.83;2.60;;;34.90;48.10;;;38.63;22.03;100897.50;5018515;28;21278;-67
2022/08/30 07:19:05;;;;;;;2.97;2.37;;;34.70;48.50;;;38.89;21.45;100893.41;5005899;28;21275;-69
2022/08/30 07:21:39;;;;;;;3.70;2.10;;;34.80;48.50;;;38.75;21.86;100887.84;5014077;28;20635;-69
2022/08/30 07:24:08;;;;;;;2.73;2.53;;;34.80;48.50;;;38.19;21.97;100894.09;4997046;28;20960;-69
2022/08/30 07:26:46;;;;;;;2.90;2.70;;;34.70;48.20;;;38.31;21.67;100892.66;4996887;28;21263;-68
2022/08/30 07:29:13;;;;;;;4.90;2.60;;;34.70;48.40;;;38.71;21.71;100899.63;5017088;28;20689;-70
2022/08/30 07:31:40;;;;;;;2.73;2.53;;;35.00;48.10;;;38.95;21.02;100902.34;5012502;28;20986;-69
2022/08/30 07:34:08;;;;;;;2.53;2.33;;;35.10;48.70;;;38.54;22.12;100899.25;5012106;28;20613;-70
2022/08/30 07:36:37;;;;;;;5.07;2.70;;;34.80;47.90;;;38.40;21.36;100903.75;5011632;28;20796;-69
2022/08/30 07:39:06;;;;;;;8.30;2.47;;;34.70;48.20;;;38.31;22.15;100902.75;5001974;28;20673;-69
2022/08/30 07:41:37;;;;;;;4.30;2.80;;;34.60;48.30;;;38.21;21.67;100891.94;5012607;28;20685;-68
2022/08/30 07:44:06;;;;;;;5.13;2.90;;;34.50;48.40;;;38.20;22.01;100893.81;4996522;28;20644;-69
2022/08/30 07:46:34;;;;;;;4.43;2.70;;;34.60;48.40;;;38.49;22.29;100900.09;4992953;28;20639;-68
2022/08/30 07:49:02;;;;;;;3.53;2.87;;;34.80;48.20;;;38.11;22.08;100898.25;4993312;28;20721;-69
2022/08/30 07:51:30;;;;;;;3.87;2.40;;;34.70;48.00;;;38.02;22.27;100898.06;5010058;28;20651;-68
2022/08/30 07:53:58;;;;;;;7.60;2.70;;;34.40;47.90;;;38.44;22.37;100883.78;5026103;28;21006;-70
2022/08/30 07:56:26;;;;;;;4.80;2.90;;;34.60;48.10;;;38.68;21.42;100892.00;5031832;28;20632;-69
2022/08/30 07:58:53;;;;;;;4.13;2.23;;;34.80;47.90;;;39.19;21.61;100901.25;5033151;28;20657;-69
2022/08/30 08:01:21;;;;;;;6.00;2.97;;;35.00;47.60;;;38.74;21.76;100894.41;5025901;28;20639;-69
2022/08/30 08:03:49;;;;;;;3.97;2.93;;;34.60;47.90;;;39.53;20.93;100895.56;5010047;28;21223;-69
2022/08/30 08:06:19;;;;;;;11.10;2.80;;;35.00;47.60;;;39.97;20.16;100887.81;5003183;28;21276;-69
2022/08/30 08:08:46;;;;;;;8.67;2.80;;;35.50;46.90;;;40.06;20.40;100896.16;5015165;28;21188;-69
2022/08/30 08:11:20;;;;;;;2.93;2.73;;;35.60;46.70;;;39.73;20.56;100899.94;5030528;28;20621;-69
2022/08/30 08:13:49;;;;;;;3.10;2.10;;;35.50;46.70;;;38.56;21.75;100894.31;5032741;28;20978;-69
2022/08/30 08:16:23;;;;;;;5.83;2.80;;;34.80;47.10;;;37.13;23.00;100886.63;4997089;28;21214;-70
2022/08/30 08:18:51;;;;;;;2.63;2.43;;;34.00;47.80;;;36.00;24.38;100899.84;5009424;28;20695;-69
2022/08/30 08:21:20;;;;;;;7.13;2.90;;;33.10;48.80;;;35.24;25.24;100892.59;5005466;28;20634;-69
2022/08/30 08:23:47;;;;;;;3.03;2.70;;;32.50;49.60;;;35.28;25.37;100891.81;5023337;28;20617;-69
2022/08/30 08:26:14;;;;;;;2.83;2.63;;;32.30;50.20;;;35.09;25.82;100890.66;5022174;28;21238;-69
2022/08/30 08:28:43;;;;;;;2.77;2.43;;;31.90;50.20;;;36.09;24.00;100894.69;4995019;28;20610;-69
2022/08/30 08:31:22;;;;;;;10.60;2.73;;;32.30;50.00;;;37.71;22.58;100893.94;4989728;28;21050;-69
2022/08/30 08:33:57;;;;;;;2.37;2.20;;;33.00;49.60;;;39.37;21.23;100903.19;5017817;28;20983;-69
2022/08/30 08:36:25;;;;;;;3.27;2.30;;;34.00;48.60;;;39.80;20.34;100894.94;5014824;28;20655;-69
2022/08/30 08:38:52;;;;;;;5.60;2.87;;;34.70;47.70;;;40.04;20.44;100890.97;4975540;28;20615;-69
2022/08/30 08:41:25;;;;;;;3.50;2.53;;;34.90;47.50;;;40.43;20.01;100898.78;4991747;28;20617;-69
2022/08/30 08:43:52;;;;;;;3.90;2.80;;;35.30;47.20;;;40.12;20.14;100890.28;4994565;28;20618;-68
2022/08/30 08:46:31;;;;;;;3.10;2.43;;;35.40;46.60;;;40.86;19.59;100891.13;5010762;28;20978;-69
2022/08/30 08:49:04;;;;;;;3.70;2.27;;;35.60;46.50;;;41.21;19.14;100897.78;5011391;28;20605;-69
2022/08/30 08:54:50;;;;;;;4.17;2.80;;;36.50;45.90;;;44.40;16.51;100897.53;5010759;28;21003;-69
2022/08/30 08:57:17;;;;;;;2.80;2.60;;;37.50;45.00;;;45.42;15.58;100896.19;5006878;28;20706;-69
2022/08/30 08:59:53;;;;;;;3.33;2.67;;;38.40;44.20;;;47.06;14.36;100898.78;4992126;28;20646;-69
2022/08/30 09:02:36;;;;;;;4.47;3.07;;;39.40;44.30;;;48.80;13.41;100892.97;5006030;28;20644;-67
2022/08/30 09:05:04;;;;;;;7.20;2.03;;;40.60;42.50;;;49.74;12.50;100893.44;5009410;28;21213;-68
2022/08/30 09:07:40;;;;;;;2.33;2.20;;;41.50;41.50;;;49.88;12.24;100895.69;5001996;28;20669;-67
2022/08/30 09:10:07;;;;;;;3.03;2.37;;;42.00;40.90;;;49.67;12.18;100890.53;5002458;28;21341;-67
2022/08/30 09:12:34;;;;;;;2.60;2.00;;;42.20;40.30;;;49.44;13.04;100886.06;5002512;28;20630;-70
2022/08/30 09:15:25;;;;;;;2.83;2.53;;;42.20;40.30;;;48.53;13.36;100879.22;5001908;28;21090;-68
2022/08/30 09:18:03;;;;;;;2.80;2.40;;;41.80;40.30;;;48.39;13.39;100881.63;5004057;28;20765;-67
2022/08/30 09:20:45;;;;;;;3.13;2.57;;;41.60;40.30;;;47.46;13.52;100880.28;4997980;28;20662;-69
2022/08/30 09:23:12;;;;;;;2.80;2.40;;;41.30;40.30;;;47.14;14.26;100872.97;4998823;28;20634;-69
2022/08/30 09:26:01;;;;;;;4.57;2.40;;;41.40;40.20;;;45.72;15.61;100863.84;5001048;28;20664;-68
2022/08/30 09:28:46;;;;;;;2.83;2.50;;;40.40;40.80;;;45.65;15.57;100871.84;5001255;28;21152;-67
2022/08/30 09:31:30;;;;;;;2.33;2.23;;;40.00;41.20;;;45.84;15.17;100874.91;5005074;28;21092;-67
2022/08/30 09:34:07;;;;;;;2.53;2.40;;;40.10;41.30;;;45.41;15.28;100871.75;5011965;28;20723;-68
2022/08/30 09:36:45;;;;;;;4.87;2.47;;;39.90;41.50;;;46.19;14.81;100865.16;5012742;28;20688;-69
2022/08/30 09:39:29;;;;;;;2.37;2.17;;;40.00;41.30;;;48.81;13.04;100863.31;5007898;28;20662;-69
2022/08/30 09:42:24;;;;;;;2.20;2.00;;;41.20;40.80;;;51.92;11.25;100870.16;4990062;28;20630;-69
2022/08/30 09:45:09;;;;;;;2.50;2.10;;;43.10;39.80;;;50.99;11.82;100866.59;5006309;28;20640;-70
2022/08/30 09:47:41;;;;;;;2.77;2.57;;;43.50;39.50;;;49.06;12.67;100852.75;5003252;28;20622;-72
2022/08/30 09:50:21;;;;;;;2.40;2.30;;;42.70;38.90;;;48.89;12.66;100849.25;5000964;28;20630;-69
2022/08/30 09:53:10;;;;;;;2.87;2.67;;;42.40;38.90;;;51.41;11.24;100849.69;5004923;28;20707;-70
2022/08/30 09:56:06;;;;;;;3.23;2.57;;;43.40;38.70;;;52.56;10.72;100846.44;5017812;28;20645;-70
2022/08/30 09:59:00;;;;;;;2.93;2.70;;;44.30;38.00;;;54.17;9.77;100853.00;5015371;28;20828;-70
2022/08/30 10:01:36;;;;;;;3.80;3.13;;;45.50;37.50;;;55.16;9.32;100843.22;5009021;28;20636;-70
2022/08/30 10:04:43;;;;;;;3.10;2.90;;;46.20;36.80;;;55.35;9.42;100834.34;5029869;28;21111;-70
2022/08/30 10:07:30;;;;;;;5.20;3.37;;;46.50;36.40;;;55.37;9.72;100834.75;5008193;28;20732;-64
2022/08/30 10:10:29;;;;;;;4.37;4.17;;;46.70;36.30;;;55.07;8.96;100834.47;4996530;28;20648;-66
2022/08/30 10:13:28;;;;;;;3.20;3.00;;;46.80;36.10;;;54.50;9.17;100827.44;5003330;28;20703;-69
2022/08/30 10:16:33;;;;;;;3.30;3.10;;;46.60;35.60;;;54.52;9.28;100825.03;5004166;28;20729;-69
2022/08/30 10:19:08;;;;;;;3.20;3.00;;;46.60;35.80;;;54.36;9.33;100824.63;5001569;28;21197;-66
2022/08/30 10:22:03;;;;;;;3.10;2.90;;;46.30;35.80;;;52.92;10.54;100814.81;5000537;28;20634;-69
2022/08/30 10:24:37;;;;;;;3.40;3.07;;;45.60;36.00;;;50.98;10.94;100810.25;5012799;28;20630;-69
2022/08/30 10:27:17;;;;;;;2.53;2.43;;;44.60;36.60;;;49.47;12.56;100802.97;5002816;28;20642;-69
2022/08/30 10:30:13;;;;;;;4.83;2.80;;;43.50;37.30;;;47.05;13.85;100809.56;5003901;28;20629;-68
2022/08/30 10:32:59;;;;;;;2.80;2.70;;;42.20;38.00;;;44.04;16.16;100793.50;4990759;28;20635;-68
2022/08/30 10:35:40;;;;;;;3.40;2.60;;;40.60;38.80;;;42.51;17.24;100780.56;5009237;28;20614;-71